sensor_id;sensor_type;location;lat;lon;timestamp;pressure;altitude;pressure_sealevel;temperature;humidity
12666;BME280;58531;59.050;17.416;2022-12-05T00:01:26;102771.75;;;-3.03;100.00
12666;BME280;58531;59.050;17.416;2022-12-05T00:03:57;102770.78;;;-3.07;100.00
12666;BME280;58531;59.050;17.416;2022-12-05T00:06:25;102771.25;;;-3.05;100.00
12666;BME280;58531;59.050;17.416;2022-12-05T00:08:53;102770.19;;;-3.04;100.00
12666;BME280;58531;59.050;17.416;2022-12-05T00:11:21;102769.72;;;-3.06;100.00
12666;BME280;58531;59.050;17.416;2022-12-05T00:13:48;102750.19;;;-3.09;100.00
12666;BME280;58531;59.050;17.416;2022-12-05T00:16:22;102763.53;;;-3.10;100.00
12666;BME280;58531;59.050;17.416;2022-12-05T00:18:50;102757.22;;;-3.09;100.00
12666;BME280;58531;59.050;17.416;2022-12-05T00:21:23;102750.47;;;-3.10;100.00
12666;BME280;58531;59.050;17.416;2022-12-05T00:23:51;102749.97;;;-3.12;100.00
12666;BME280;58531;59.050;17.416;2022-12-05T00:26:18;102748.25;;;-3.17;100.00
12666;BME280;58531;59.050;17.416;2022-12-05T00:28:45;102747.94;;;-3.15;100.00
12666;BME280;58531;59.050;17.416;2022-12-05T00:31:14;102741.47;;;-3.18;100.00
12666;BME280;58531;59.050;17.416;2022-12-05T00:33:42;102741.94;;;-3.16;100.00
12666;BME280;58531;59.050;17.416;2022-12-05T00:36:11;102737.22;;;-3.14;100.00
12666;BME280;58531;59.050;17.416;2022-12-05T00:38:40;102748.22;;;-3.03;100.00
12666;BME280;58531;59.050;17.416;2022-12-05T00:41:09;102747.66;;;-3.00;100.00
12666;BME280;58531;59.050;17.416;2022-12-05T00:43:37;102748.13;;;-2.98;100.00
12666;BME280;58531;59.050;17.416;2022-12-05T00:46:05;102747.72;;;-2.92;100.00
12666;BME280;58531;59.050;17.416;2022-12-05T00:48:32;102746.06;;;-2.88;100.00
12666;BME280;58531;59.050;17.416;2022-12-05T00:51:00;102739.31;;;-2.89;100.00
12666;BME280;58531;59.050;17.416;2022-12-05T00:53:27;102737.38;;;-2.83;100.00
12666;BME280;58531;59.050;17.416;2022-12-05T00:56:00;102738.31;;;-2.79;100.00
12666;BME280;58531;59.050;17.416;2022-12-05T00:58:28;102737.13;;;-2.73;100.00
12666;BME280;58531;59.050;17.416;2022-12-05T01:00:54;102730.75;;;-2.67;100.00
12666;BME280;58531;59.050;17.416;2022-12-05T01:03:21;102733.06;;;-2.66;100.00
12666;BME280;58531;59.050;17.416;2022-12-05T01:05:48;102727.25;;;-2.63;100.00
12666;BME280;58531;59.050;17.416;2022-12-05T01:08:15;102732.19;;;-2.61;100.00
12666;BME280;58531;59.050;17.416;2022-12-05T01:10:51;102725.88;;;-2.60;100.00
12666;BME280;58531;59.050;17.416;2022-12-05T01:13:19;102733.63;;;-2.55;100.00
12666;BME280;58531;59.050;17.416;2022-12-05T01:15:46;102733.03;;;-2.52;100.00
12666;BME280;58531;59.050;17.416;2022-12-05T01:18:13;102730.41;;;-2.52;100.00
12666;BME280;58531;59.050;17.416;2022-12-05T01:20:41;102735.06;;;-2.49;100.00
12666;BME280;58531;59.050;17.416;2022-12-05T01:23:08;102731.84;;;-2.46;100.00
12666;BME280;58531;59.050;17.416;2022-12-05T01:25:38;102729.25;;;-2.46;100.00
12666;BME280;58531;59.050;17.416;2022-12-05T01:28:06;102730.78;;;-2.45;100.00
12666;BME280;58531;59.050;17.416;2022-12-05T01:30:36;102732.81;;;-2.42;100.00
12666;BME280;58531;59.050;17.416;2022-12-05T01:33:03;102728.81;;;-2.40;100.00
12666;BME280;58531;59.050;17.416;2022-12-05T01:35:30;102725.59;;;-2.37;100.00
12666;BME280;58531;59.050;17.416;2022-12-05T01:37:57;102721.75;;;-2.39;100.00
12666;BME280;58531;59.050;17.416;2022-12-05T01:40:24;102728.72;;;-2.35;100.00
12666;BME280;58531;59.050;17.416;2022-12-05T01:42:51;102725.03;;;-2.34;100.00
12666;BME280;58531;59.050;17.416;2022-12-05T01:45:25;102734.13;;;-2.32;100.00
12666;BME280;58531;59.050;17.416;2022-12-05T01:47:59;102738.56;;;-2.32;100.00
12666;BME280;58531;59.050;17.416;2022-12-05T01:50:28;102738.31;;;-2.31;100.00
12666;BME280;58531;59.050;17.416;2022-12-05T01:52:55;102736.13;;;-2.29;100.00
12666;BME280;58531;59.050;17.416;2022-12-05T01:55:21;102729.38;;;-2.30;100.00
12666;BME280;58531;59.050;17.416;2022-12-05T01:57:48;102729.56;;;-2.26;100.00
12666;BME280;58531;59.050;17.416;2022-12-05T02:00:18;102722.47;;;-2.26;100.00
12666;BME280;58531;59.050;17.416;2022-12-05T02:02:48;102715.69;;;-2.27;100.00
12666;BME280;58531;59.050;17.416;2022-12-05T02:05:19;102713.53;;;-2.25;100.00
12666;BME280;58531;59.050;17.416;2022-12-05T02:07:47;102711.41;;;-2.23;100.00
12666;BME280;58531;59.050;17.416;2022-12-05T02:10:15;102719.25;;;-2.23;100.00
12666;BME280;58531;59.050;17.416;2022-12-05T02:12:42;102724.00;;;-2.25;100.00
12666;BME280;58531;59.050;17.416;2022-12-05T02:15:21;102718.13;;;-2.30;100.00
12666;BME280;58531;59.050;17.416;2022-12-05T02:18:03;102713.53;;;-2.46;100.00
12666;BME280;58531;59.050;17.416;2022-12-05T02:20:42;102713.88;;;-2.61;100.00
12666;BME280;58531;59.050;17.416;2022-12-05T02:23:26;102706.72;;;-2.69;100.00
12666;BME280;58531;59.050;17.416;2022-12-05T02:29:13;102711.50;;;-2.85;100.00
12666;BME280;58531;59.050;17.416;2022-12-05T02:31:50;102705.44;;;-2.94;100.00
12666;BME280;58531;59.050;17.416;2022-12-05T02:34:26;102701.56;;;-2.96;100.00
12666;BME280;58531;59.050;17.416;2022-12-05T02:36:57;102699.06;;;-3.01;100.00
12666;BME280;58531;59.050;17.416;2022-12-05T02:39:34;102701.19;;;-3.03;100.00
12666;BME280;58531;59.050;17.416;2022-12-05T02:42:09;102705.63;;;-3.04;100.00
12666;BME280;58531;59.050;17.416;2022-12-05T02:44:42;102702.16;;;-2.99;100.00
12666;BME280;58531;59.050;17.416;2022-12-05T02:47:13;102697.41;;;-2.97;100.00
12666;BME280;58531;59.050;17.416;2022-12-05T02:49:43;102700.03;;;-2.97;100.00
12666;BME280;58531;59.050;17.416;2022-12-05T02:52:12;102694.00;;;-2.98;100.00
12666;BME280;58531;59.050;17.416;2022-12-05T02:54:42;102694.22;;;-2.94;100.00
12666;BME280;58531;59.050;17.416;2022-12-05T02:57:12;102700.41;;;-2.90;100.00
12666;BME280;58531;59.050;17.416;2022-12-05T02:59:40;102697.09;;;-2.82;100.00
12666;BME280;58531;59.050;17.416;2022-12-05T03:02:07;102689.25;;;-2.82;100.00
12666;BME280;58531;59.050;17.416;2022-12-05T03:04:36;102689.72;;;-2.80;100.00
12666;BME280;58531;59.050;17.416;2022-12-05T03:07:05;102686.03;;;-2.79;100.00
12666;BME280;58531;59.050;17.416;2022-12-05T03:09:37;102678.66;;;-2.77;100.00
12666;BME280;58531;59.050;17.416;2022-12-05T03:12:09;102675.47;;;-2.74;100.00
12666;BME280;58531;59.050;17.416;2022-12-05T03:14:42;102675.47;;;-2.74;100.00
12666;BME280;58531;59.050;17.416;2022-12-05T03:17:14;102672.69;;;-2.78;100.00
12666;BME280;58531;59.050;17.416;2022-12-05T03:19:51;102669.41;;;-2.83;100.00
12666;BME280;58531;59.050;17.416;2022-12-05T03:22:25;102662.75;;;-2.89;100.00
12666;BME280;58531;59.050;17.416;2022-12-05T03:24:53;102658.97;;;-2.97;100.00
12666;BME280;58531;59.050;17.416;2022-12-05T03:27:24;102663.06;;;-3.04;100.00
12666;BME280;58531;59.050;17.416;2022-12-05T03:29:55;102659.97;;;-3.06;100.00
12666;BME280;58531;59.050;17.416;2022-12-05T03:32:30;102653.78;;;-3.10;100.00
12666;BME280;58531;59.050;17.416;2022-12-05T03:35:05;102654.19;;;-3.17;100.00
12666;BME280;58531;59.050;17.416;2022-12-05T03:37:41;102651.84;;;-3.18;100.00
12666;BME280;58531;59.050;17.416;2022-12-05T03:40:14;102653.97;;;-3.20;100.00
12666;BME280;58531;59.050;17.416;2022-12-05T03:42:49;102650.88;;;-3.22;100.00
12666;BME280;58531;59.050;17.416;2022-12-05T03:45:22;102650.88;;;-3.22;100.00
12666;BME280;58531;59.050;17.416;2022-12-05T03:47:56;102644.69;;;-3.26;100.00
12666;BME280;58531;59.050;17.416;2022-12-05T03:50:28;102648.09;;;-3.26;100.00
12666;BME280;58531;59.050;17.416;2022-12-05T03:52:58;102642.09;;;-3.26;100.00
12666;BME280;58531;59.050;17.416;2022-12-05T03:55:30;102639.84;;;-3.19;100.00
12666;BME280;58531;59.050;17.416;2022-12-05T03:58:01;102639.28;;;-3.16;100.00
12666;BME280;58531;59.050;17.416;2022-12-05T04:00:32;102632.72;;;-3.14;100.00
12666;BME280;58531;59.050;17.416;2022-12-05T04:03:04;102631.81;;;-3.09;100.00
12666;BME280;58531;59.050;17.416;2022-12-05T04:05:41;102628.13;;;-3.08;100.00
12666;BME280;58531;59.050;17.416;2022-12-05T04:08:14;102628.03;;;-3.03;100.00
12666;BME280;58531;59.050;17.416;2022-12-05T04:10:45;102632.06;;;-2.97;100.00
12666;BME280;58531;59.050;17.416;2022-12-05T04:13:17;102629.25;;;-3.01;100.00
12666;BME280;58531;59.050;17.416;2022-12-05T04:15:50;102623.75;;;-2.99;100.00
12666;BME280;58531;59.050;17.416;2022-12-05T04:18:41;102620.25;;;-2.95;100.00
12666;BME280;58531;59.050;17.416;2022-12-05T04:21:12;102618.91;;;-2.92;100.00
12666;BME280;58531;59.050;17.416;2022-12-05T04:23:56;102617.53;;;-2.90;100.00
12666;BME280;58531;59.050;17.416;2022-12-05T04:26:46;102610.94;;;-2.87;100.00
12666;BME280;58531;59.050;17.416;2022-12-05T04:29:25;102616.94;;;-2.87;100.00
12666;BME280;58531;59.050;17.416;2022-12-05T04:31:58;102618.00;;;-2.88;100.00
12666;BME280;58531;59.050;17.416;2022-12-05T04:34:28;102612.19;;;-2.85;100.00
12666;BME280;58531;59.050;17.416;2022-12-05T04:37:01;102610.16;;;-2.88;100.00
12666;BME280;58531;59.050;17.416;2022-12-05T04:39:35;102617.13;;;-2.83;100.00
12666;BME280;58531;59.050;17.416;2022-12-05T04:42:05;102611.13;;;-2.84;100.00
12666;BME280;58531;59.050;17.416;2022-12-05T04:44:36;102612.81;;;-2.79;100.00
12666;BME280;58531;59.050;17.416;2022-12-05T04:47:06;102605.47;;;-2.77;100.00
12666;BME280;58531;59.050;17.416;2022-12-05T04:49:34;102602.38;;;-2.79;100.00
12666;BME280;58531;59.050;17.416;2022-12-05T04:52:07;102596.56;;;-2.76;100.00
12666;BME280;58531;59.050;17.416;2022-12-05T04:54:38;102599.25;;;-2.68;100.00
12666;BME280;58531;59.050;17.416;2022-12-05T04:57:12;102604.16;;;-2.66;100.00
12666;BME280;58531;59.050;17.416;2022-12-05T04:59:42;102594.28;;;-2.69;100.00
12666;BME280;58531;59.050;17.416;2022-12-05T05:02:11;102591.41;;;-2.68;100.00
12666;BME280;58531;59.050;17.416;2022-12-05T05:04:42;102592.16;;;-2.67;100.00
12666;BME280;58531;59.050;17.416;2022-12-05T05:07:13;102599.06;;;-2.71;100.00
12666;BME280;58531;59.050;17.416;2022-12-05T05:09:41;102590.94;;;-2.70;100.00
12666;BME280;58531;59.050;17.416;2022-12-05T05:12:07;102591.22;;;-2.71;100.00
12666;BME280;58531;59.050;17.416;2022-12-05T05:14:34;102582.88;;;-2.73;100.00
12666;BME280;58531;59.050;17.416;2022-12-05T05:17:01;102585.38;;;-2.68;100.00
12666;BME280;58531;59.050;17.416;2022-12-05T05:19:29;102585.69;;;-2.70;100.00
12666;BME280;58531;59.050;17.416;2022-12-05T05:21:55;102580.16;;;-2.68;100.00
12666;BME280;58531;59.050;17.416;2022-12-05T05:24:24;102583.84;;;-2.69;100.00
12666;BME280;58531;59.050;17.416;2022-12-05T05:26:51;102576.94;;;-2.65;100.00
12666;BME280;58531;59.050;17.416;2022-12-05T05:29:18;102575.59;;;-2.63;100.00
12666;BME280;58531;59.050;17.416;2022-12-05T05:31:45;102580.63;;;-2.66;100.00
12666;BME280;58531;59.050;17.416;2022-12-05T05:34:12;102575.59;;;-2.63;100.00
12666;BME280;58531;59.050;17.416;2022-12-05T05:36:41;102576.34;;;-2.62;100.00
12666;BME280;58531;59.050;17.416;2022-12-05T05:39:11;102571.13;;;-2.62;100.00
12666;BME280;58531;59.050;17.416;2022-12-05T05:41:40;102566.56;;;-2.57;100.00
12666;BME280;58531;59.050;17.416;2022-12-05T05:44:08;102565.31;;;-2.59;100.00
12666;BME280;58531;59.050;17.416;2022-12-05T05:46:35;102563.00;;;-2.61;100.00
12666;BME280;58531;59.050;17.416;2022-12-05T05:49:02;102570.53;;;-2.59;100.00
12666;BME280;58531;59.050;17.416;2022-12-05T05:51:29;102572.25;;;-2.55;100.00
12666;BME280;58531;59.050;17.416;2022-12-05T05:53:57;102564.22;;;-2.58;100.00
12666;BME280;58531;59.050;17.416;2022-12-05T05:56:25;102562.25;;;-2.53;100.00
12666;BME280;58531;59.050;17.416;2022-12-05T05:58:57;102553.66;;;-2.53;100.00
12666;BME280;58531;59.050;17.416;2022-12-05T06:01:24;102555.78;;;-2.55;100.00
12666;BME280;58531;59.050;17.416;2022-12-05T06:03:51;102547.81;;;-2.50;100.00
12666;BME280;58531;59.050;17.416;2022-12-05T06:06:19;102554.28;;;-2.48;100.00
12666;BME280;58531;59.050;17.416;2022-12-05T06:08:46;102541.03;;;-2.51;100.00
12666;BME280;58531;59.050;17.416;2022-12-05T06:11:15;102544.41;;;-2.51;100.00
12666;BME280;58531;59.050;17.416;2022-12-05T06:13:42;102546.16;;;-2.46;100.00
12666;BME280;58531;59.050;17.416;2022-12-05T06:16:12;102534.44;;;-2.49;100.00
12666;BME280;58531;59.050;17.416;2022-12-05T06:18:39;102545.97;;;-2.50;100.00
12666;BME280;58531;59.050;17.416;2022-12-05T06:21:06;102552.44;;;-2.47;100.00
12666;BME280;58531;59.050;17.416;2022-12-05T06:23:34;102545.84;;;-2.45;100.00
12666;BME280;58531;59.050;17.416;2022-12-05T06:26:01;102546.03;;;-2.41;100.00
12666;BME280;58531;59.050;17.416;2022-12-05T06:28:29;102555.53;;;-2.45;100.00
12666;BME280;58531;59.050;17.416;2022-12-05T06:30:56;102552.44;;;-2.47;100.00
12666;BME280;58531;59.050;17.416;2022-12-05T06:33:24;102551.25;;;-2.41;100.00
12666;BME280;58531;59.050;17.416;2022-12-05T06:36:01;102545.91;;;-2.36;100.00
12666;BME280;58531;59.050;17.416;2022-12-05T06:38:28;102552.66;;;-2.35;100.00
12666;BME280;58531;59.050;17.416;2022-12-05T06:40:55;102548.50;;;-2.36;100.00
12666;BME280;58531;59.050;17.416;2022-12-05T06:43:22;102545.44;;;-2.38;100.00
12666;BME280;58531;59.050;17.416;2022-12-05T06:45:48;102547.56;;;-2.40;100.00
12666;BME280;58531;59.050;17.416;2022-12-05T06:48:15;102546.03;;;-2.41;100.00
12666;BME280;58531;59.050;17.416;2022-12-05T06:50:48;102540.59;;;-2.45;100.00
12666;BME280;58531;59.050;17.416;2022-12-05T06:53:16;102537.69;;;-2.43;100.00
12666;BME280;58531;59.050;17.416;2022-12-05T06:55:42;102541.38;;;-2.44;100.00
12666;BME280;58531;59.050;17.416;2022-12-05T06:58:09;102545.06;;;-2.45;100.00
12666;BME280;58531;59.050;17.416;2022-12-05T07:00:36;102535.38;;;-2.45;100.00
12666;BME280;58531;59.050;17.416;2022-12-05T07:03:34;102534.63;;;-2.45;100.00
12666;BME280;58531;59.050;17.416;2022-12-05T07:06:04;102539.38;;;-2.47;100.00
12666;BME280;58531;59.050;17.416;2022-12-05T07:08:32;102535.38;;;-2.45;100.00
12666;BME280;58531;59.050;17.416;2022-12-05T07:11:00;102531.69;;;-2.44;100.00
12666;BME280;58531;59.050;17.416;2022-12-05T07:13:27;102528.78;;;-2.42;100.00
12666;BME280;58531;59.050;17.416;2022-12-05T07:15:53;102527.72;;;-2.41;100.00
12666;BME280;58531;59.050;17.416;2022-12-05T07:18:20;102520.16;;;-2.43;100.00
12666;BME280;58531;59.050;17.416;2022-12-05T07:20:55;102519.06;;;-2.42;100.00
12666;BME280;58531;59.050;17.416;2022-12-05T07:23:23;102510.16;;;-2.41;100.00
12666;BME280;58531;59.050;17.416;2022-12-05T07:25:50;102519.25;;;-2.38;100.00
12666;BME280;58531;59.050;17.416;2022-12-05T07:28:17;102502.97;;;-2.35;100.00
12666;BME280;58531;59.050;17.416;2022-12-05T07:30:43;102511.75;;;-2.32;100.00
12666;BME280;58531;59.050;17.416;2022-12-05T07:33:10;102503.91;;;-2.32;100.00
12666;BME280;58531;59.050;17.416;2022-12-05T07:35:37;102500.22;;;-2.31;100.00
12666;BME280;58531;59.050;17.416;2022-12-05T07:38:04;102502.38;;;-2.24;100.00
12666;BME280;58531;59.050;17.416;2022-12-05T07:40:32;102508.38;;;-2.24;100.00
12666;BME280;58531;59.050;17.416;2022-12-05T07:42:59;102507.47;;;-2.19;100.00
12666;BME280;58531;59.050;17.416;2022-12-05T07:45:26;102506.69;;;-2.20;100.00
12666;BME280;58531;59.050;17.416;2022-12-05T07:47:53;102492.06;;;-2.21;100.00
12666;BME280;58531;59.050;17.416;2022-12-05T07:50:19;102495.16;;;-2.19;100.00
12666;BME280;58531;59.050;17.416;2022-12-05T07:52:46;102499.50;;;-2.14;100.00
12666;BME280;58531;59.050;17.416;2022-12-05T07:55:13;102496.56;;;-2.13;100.00
12666;BME280;58531;59.050;17.416;2022-12-05T07:57:41;102490.91;;;-2.06;100.00
12666;BME280;58531;59.050;17.416;2022-12-05T08:00:09;102488.56;;;-2.08;100.00
12666;BME280;58531;59.050;17.416;2022-12-05T08:02:36;102497.69;;;-2.05;100.00
12666;BME280;58531;59.050;17.416;2022-12-05T08:05:03;102489.97;;;-2.02;100.00
12666;BME280;58531;59.050;17.416;2022-12-05T08:07:30;102495.50;;;-2.03;100.00
12666;BME280;58531;59.050;17.416;2022-12-05T08:09:57;102492.00;;;-1.99;100.00
12666;BME280;58531;59.050;17.416;2022-12-05T08:12:23;102494.16;;;-2.01;100.00
12666;BME280;58531;59.050;17.416;2022-12-05T08:14:51;102484.59;;;-1.97;100.00
12666;BME280;58531;59.050;17.416;2022-12-05T08:17:18;102482.13;;;-1.93;100.00
12666;BME280;58531;59.050;17.416;2022-12-05T08:19:45;102475.06;;;-1.93;100.00
12666;BME280;58531;59.050;17.416;2022-12-05T08:22:12;102472.91;;;-1.91;100.00
12666;BME280;58531;59.050;17.416;2022-12-05T08:24:38;102483.25;;;-1.86;100.00
12666;BME280;58531;59.050;17.416;2022-12-05T08:27:09;102467.69;;;-1.91;100.00
12666;BME280;58531;59.050;17.416;2022-12-05T08:29:36;102469.97;;;-1.89;100.00
12666;BME280;58531;59.050;17.416;2022-12-05T08:32:04;102466.44;;;-1.93;100.00
12666;BME280;58531;59.050;17.416;2022-12-05T08:34:31;102461.50;;;-1.95;100.00
12666;BME280;58531;59.050;17.416;2022-12-05T08:36:58;102462.59;;;-1.96;100.00
12666;BME280;58531;59.050;17.416;2022-12-05T08:39:25;102455.81;;;-1.97;100.00
12666;BME280;58531;59.050;17.416;2022-12-05T08:41:52;102465.34;;;-1.92;100.00
12666;BME280;58531;59.050;17.416;2022-12-05T08:44:18;102451.03;;;-1.95;100.00
12666;BME280;58531;59.050;17.416;2022-12-05T08:46:47;102462.44;;;-1.91;100.00
12666;BME280;58531;59.050;17.416;2022-12-05T08:49:16;102459.81;;;-1.91;100.00
12666;BME280;58531;59.050;17.416;2022-12-05T08:51:43;102453.53;;;-1.90;100.00
12666;BME280;58531;59.050;17.416;2022-12-05T08:54:11;102444.59;;;-1.89;100.00
12666;BME280;58531;59.050;17.416;2022-12-05T08:56:37;102445.53;;;-1.85;100.00
12666;BME280;58531;59.050;17.416;2022-12-05T08:59:05;102444.28;;;-1.79;100.00
12666;BME280;58531;59.050;17.416;2022-12-05T09:01:32;102435.97;;;-1.81;100.00
12666;BME280;58531;59.050;17.416;2022-12-05T09:04:01;102443.50;;;-1.79;100.00
12666;BME280;58531;59.050;17.416;2022-12-05T09:06:31;102434.44;;;-1.73;100.00
12666;BME280;58531;59.050;17.416;2022-12-05T09:09:00;102434.09;;;-1.72;100.00
12666;BME280;58531;59.050;17.416;2022-12-05T09:11:30;102435.19;;;-1.73;100.00
12666;BME280;58531;59.050;17.416;2022-12-05T09:13:59;102435.81;;;-1.67;100.00
12666;BME280;58531;59.050;17.416;2022-12-05T09:16:28;102437.03;;;-1.65;100.00
12666;BME280;58531;59.050;17.416;2022-12-05T09:18:55;102444.59;;;-1.55;100.00
12666;BME280;58531;59.050;17.416;2022-12-05T09:21:24;102437.66;;;-1.51;100.00
12666;BME280;58531;59.050;17.416;2022-12-05T09:23:53;102434.41;;;-1.48;100.00
12666;BME280;58531;59.050;17.416;2022-12-05T09:26:22;102433.34;;;-1.47;100.00
12666;BME280;58531;59.050;17.416;2022-12-05T09:28:50;102433.19;;;-1.42;100.00
12666;BME280;58531;59.050;17.416;2022-12-05T09:31:19;102433.66;;;-1.40;100.00
12666;BME280;58531;59.050;17.416;2022-12-05T09:33:47;102427.94;;;-1.42;100.00
12666;BME280;58531;59.050;17.416;2022-12-05T09:36:16;102427.94;;;-1.42;100.00
12666;BME280;58531;59.050;17.416;2022-12-05T09:38:44;102425.78;;;-1.40;100.00
12666;BME280;58531;59.050;17.416;2022-12-05T09:41:33;102423.63;;;-1.38;100.00
12666;BME280;58531;59.050;17.416;2022-12-05T09:44:44;102419.31;;;-1.34;100.00
12666;BME280;58531;59.050;17.416;2022-12-05T09:47:20;102414.69;;;-1.37;100.00
12666;BME280;58531;59.050;17.416;2022-12-05T09:49:53;102411.44;;;-1.34;100.00
12666;BME280;58531;59.050;17.416;2022-12-05T09:52:26;102409.28;;;-1.32;100.00
12666;BME280;58531;59.050;17.416;2022-12-05T09:54:54;102408.03;;;-1.26;100.00
12666;BME280;58531;59.050;17.416;2022-12-05T09:57:31;102400.94;;;-1.25;100.00
12666;BME280;58531;59.050;17.416;2022-12-05T10:00:00;102399.28;;;-1.30;100.00
12666;BME280;58531;59.050;17.416;2022-12-05T10:02:35;102400.66;;;-1.32;100.00
12666;BME280;58531;59.050;17.416;2022-12-05T10:05:10;102393.09;;;-1.34;100.00
12666;BME280;58531;59.050;17.416;2022-12-05T10:07:45;102398.81;;;-1.32;100.00
12666;BME280;58531;59.050;17.416;2022-12-05T10:10:27;102402.78;;;-1.26;100.00
12666;BME280;58531;59.050;17.416;2022-12-05T10:13:09;102395.69;;;-1.25;100.00
12666;BME280;58531;59.050;17.416;2022-12-05T10:15:41;102398.16;;;-1.20;100.00
12666;BME280;58531;59.050;17.416;2022-12-05T10:18:15;102395.09;;;-1.22;100.00
12666;BME280;58531;59.050;17.416;2022-12-05T10:20:51;102396.28;;;-1.20;100.00
12666;BME280;58531;59.050;17.416;2022-12-05T10:23:23;102389.84;;;-1.22;100.00
12666;BME280;58531;59.050;17.416;2022-12-05T10:25:56;102381.19;;;-1.23;100.00
12666;BME280;58531;59.050;17.416;2022-12-05T10:28:31;102376.41;;;-1.21;100.00
12666;BME280;58531;59.050;17.416;2022-12-05T10:31:06;102371.16;;;-1.21;100.00
12666;BME280;58531;59.050;17.416;2022-12-05T10:33:38;102376.41;;;-1.21;100.00
12666;BME280;58531;59.050;17.416;2022-12-05T10:36:10;102371.31;;;-1.17;100.00
12666;BME280;58531;59.050;17.416;2022-12-05T10:38:42;102362.38;;;-1.17;100.00
12666;BME280;58531;59.050;17.416;2022-12-05T10:41:12;102360.50;;;-1.16;100.00
12666;BME280;58531;59.050;17.416;2022-12-05T10:43:43;102368.53;;;-1.21;100.00
12666;BME280;58531;59.050;17.416;2022-12-05T10:46:16;102369.00;;;-1.19;100.00
12666;BME280;58531;59.050;17.416;2022-12-05T10:48:45;102364.53;;;-1.18;100.00
12666;BME280;58531;59.050;17.416;2022-12-05T10:51:14;102352.81;;;-1.21;100.00
12666;BME280;58531;59.050;17.416;2022-12-05T10:53:44;102340.16;;;-1.19;100.00
12666;BME280;58531;59.050;17.416;2022-12-05T10:56:39;102328.59;;;-1.18;100.00
12666;BME280;58531;59.050;17.416;2022-12-05T10:59:10;102328.94;;;-1.19;100.00
12666;BME280;58531;59.050;17.416;2022-12-05T11:01:43;102316.59;;;-1.19;100.00
12666;BME280;58531;59.050;17.416;2022-12-05T11:04:19;102311.34;;;-1.19;100.00
12666;BME280;58531;59.050;17.416;2022-12-05T11:06:52;102299.66;;;-1.21;100.00
12666;BME280;58531;59.050;17.416;2022-12-05T11:09:24;102298.56;;;-1.20;100.00
12666;BME280;58531;59.050;17.416;2022-12-05T11:12:15;102299.19;;;-1.23;100.00
12666;BME280;58531;59.050;17.416;2022-12-05T11:14:55;102290.41;;;-1.27;100.00
12666;BME280;58531;59.050;17.416;2022-12-05T11:17:28;102291.63;;;-1.25;100.00
12666;BME280;58531;59.050;17.416;2022-12-05T11:19:56;102287.94;;;-1.24;100.00
12666;BME280;58531;59.050;17.416;2022-12-05T11:22:30;102299.31;;;-1.20;100.00
12666;BME280;58531;59.050;17.416;2022-12-05T11:24:57;102293.91;;;-1.15;100.00
12666;BME280;58531;59.050;17.416;2022-12-05T11:27:27;102300.69;;;-1.14;100.00
12666;BME280;58531;59.050;17.416;2022-12-05T11:30:02;102303.31;;;-1.14;100.00
12666;BME280;58531;59.050;17.416;2022-12-05T11:32:31;102290.84;;;-1.17;100.00
12666;BME280;58531;59.050;17.416;2022-12-05T11:35:23;102291.28;;;-1.15;100.00
12666;BME280;58531;59.050;17.416;2022-12-05T11:37:54;102277.09;;;-1.14;100.00
12666;BME280;58531;59.050;17.416;2022-12-05T11:40:29;102272.75;;;-1.10;100.00
12666;BME280;58531;59.050;17.416;2022-12-05T11:43:25;102263.06;;;-1.10;100.00
12666;BME280;58531;59.050;17.416;2022-12-05T11:46:03;102255.78;;;-1.04;100.00
12666;BME280;58531;59.050;17.416;2022-12-05T11:48:55;102244.22;;;-1.03;100.00
12666;BME280;58531;59.050;17.416;2022-12-05T11:51:35;102240.31;;;-0.97;100.00
12666;BME280;58531;59.050;17.416;2022-12-05T11:54:32;102240.16;;;-1.01;100.00
12666;BME280;58531;59.050;17.416;2022-12-05T11:57:13;102241.41;;;-0.98;100.00
12666;BME280;58531;59.050;17.416;2022-12-05T12:00:03;102235.97;;;-0.93;100.00
12666;BME280;58531;59.050;17.416;2022-12-05T12:02:46;102229.19;;;-0.94;100.00
12666;BME280;58531;59.050;17.416;2022-12-05T12:05:24;102225.94;;;-0.91;100.00
12666;BME280;58531;59.050;17.416;2022-12-05T12:08:04;102211.41;;;-0.89;100.00
12666;BME280;58531;59.050;17.416;2022-12-05T12:10:50;102208.34;;;-0.91;100.00
12666;BME280;58531;59.050;17.416;2022-12-05T12:13:29;102213.72;;;-0.87;100.00
12666;BME280;58531;59.050;17.416;2022-12-05T12:16:09;102222.69;;;-0.88;100.00
12666;BME280;58531;59.050;17.416;2022-12-05T12:18:54;102217.63;;;-0.93;100.00
12666;BME280;58531;59.050;17.416;2022-12-05T12:21:33;102215.13;;;-0.90;100.00
12666;BME280;58531;59.050;17.416;2022-12-05T12:24:10;102208.34;;;-0.91;100.00
12666;BME280;58531;59.050;17.416;2022-12-05T12:26:51;102203.44;;;-0.92;100.00
12666;BME280;58531;59.050;17.416;2022-12-05T12:29:32;102188.78;;;-0.93;100.00
12666;BME280;58531;59.050;17.416;2022-12-05T12:32:20;102185.84;;;-0.92;100.00
12666;BME280;58531;59.050;17.416;2022-12-05T12:35:02;102177.97;;;-0.92;100.00
12666;BME280;58531;59.050;17.416;2022-12-05T12:37:38;102180.59;;;-0.92;100.00
12666;BME280;58531;59.050;17.416;2022-12-05T12:40:13;102179.84;;;-0.92;100.00
12666;BME280;58531;59.050;17.416;2022-12-05T12:42:52;102169.53;;;-0.97;100.00
12666;BME280;58531;59.050;17.416;2022-12-05T12:45:53;102169.97;;;-0.95;100.00
12666;BME280;58531;59.050;17.416;2022-12-05T12:48:32;102162.75;;;-0.98;100.00
12666;BME280;58531;59.050;17.416;2022-12-05T12:51:04;102156.44;;;-0.97;100.00
12666;BME280;58531;59.050;17.416;2022-12-05T12:56:41;102147.03;;;-0.98;100.00
12666;BME280;58531;59.050;17.416;2022-12-05T13:02:13;102150.28;;;-1.01;100.00